createdAt,value
2019-01-13T00:00:50.142Z,28.85
2019-01-13T00:01:50.127Z,28.93
2019-01-13T00:02:49.857Z,28.95
2019-01-13T00:03:50.090Z,28.85
2019-01-13T00:04:50.070Z,28.95
2019-01-13T00:05:50.055Z,29.99
2019-01-13T00:06:49.793Z,29.8
2019-01-13T00:07:50.018Z,29.99
2019-01-13T00:08:49.995Z,30.74
2019-01-13T00:09:49.977Z,30.93
2019-01-13T00:10:49.959Z,31.01
2019-01-13T00:11:49.940Z,31.03
2019-01-13T00:12:49.921Z,31.31
2019-01-13T00:13:49.903Z,31.41
2019-01-13T00:14:49.885Z,31.5
2019-01-13T00:15:49.871Z,31.79
2019-01-13T00:16:49.849Z,31.58
2019-01-13T00:17:49.829Z,31.86
2019-01-13T00:18:49.811Z,31.98
2019-01-13T00:19:49.792Z,31.79
2019-01-13T00:20:49.775Z,31.86
2019-01-13T00:21:49.755Z,31.79
2019-01-13T00:22:49.737Z,32.17
2019-01-13T00:23:49.719Z,32.26
2019-01-13T00:24:49.455Z,31.96
2019-01-13T00:25:49.689Z,31.88
2019-01-13T00:26:49.664Z,31.79
2019-01-13T00:27:49.646Z,31.6
2019-01-13T00:28:49.625Z,31.79
2019-01-13T00:29:49.610Z,31.79
2019-01-13T00:30:49.593Z,31.31
2019-01-13T00:31:49.569Z,31.22
2019-01-13T00:32:49.553Z,31.22
2019-01-13T00:33:49.534Z,30.93
2019-01-13T00:34:49.521Z,31.22
2019-01-13T00:35:49.497Z,31.5
2019-01-13T00:36:49.512Z,31.6
2019-01-13T00:37:49.459Z,31.79
2019-01-13T00:38:49.444Z,31.88
2019-01-13T00:39:49.424Z,31.79
2019-01-13T00:40:49.407Z,31.98
2019-01-13T00:41:49.394Z,31.79
2019-01-13T00:42:49.134Z,31.98
2019-01-13T00:43:49.352Z,31.88
2019-01-13T00:44:49.083Z,32.26
2019-01-13T00:45:49.066Z,32.45
2019-01-13T00:46:49.294Z,32.26
2019-01-13T00:47:49.280Z,32.35
2019-01-13T00:48:49.256Z,32.45
2019-01-13T00:49:49.239Z,32.35
2019-01-13T00:50:49.220Z,32.26
2019-01-13T00:51:49.201Z,32.64
2019-01-13T00:52:49.187Z,32.54
2019-01-13T00:53:49.165Z,32.45
2019-01-13T00:54:49.152Z,32.45
2019-01-13T00:55:49.131Z,32.64
2019-01-13T00:56:48.871Z,33.01
2019-01-13T00:57:49.109Z,33.11
2019-01-13T00:58:49.073Z,33.11
2019-01-13T00:59:49.055Z,33.3
2019-01-13T01:00:49.039Z,33.11
2019-01-13T01:01:49.018Z,33.2
2019-01-13T01:02:49.001Z,33.3
2019-01-13T01:03:48.982Z,33.3
2019-01-13T01:04:48.964Z,33.87
2019-01-13T01:05:48.696Z,33.49
2019-01-13T01:06:48.939Z,33.58
2019-01-13T01:07:49.514Z,33.49
2019-01-13T01:08:48.892Z,33.39
2019-01-13T01:09:48.626Z,33.39
2019-01-13T01:10:48.606Z,32.92
2019-01-13T01:11:48.836Z,32.92
2019-01-13T01:12:49.068Z,32.54
2019-01-13T01:13:48.803Z,32.45
2019-01-13T01:14:48.783Z,32.17
2019-01-13T01:15:48.768Z,32.26
2019-01-13T01:16:48.741Z,32.17
2019-01-13T01:17:48.726Z,31.88
2019-01-13T01:18:48.707Z,31.88
2019-01-13T01:19:48.690Z,31.88
2019-01-13T01:20:48.672Z,31.88
2019-01-13T01:21:48.651Z,32.17
2019-01-13T01:22:48.642Z,32.07
2019-01-13T01:23:48.371Z,32.07
2019-01-13T01:24:48.595Z,32.17
2019-01-13T01:25:48.331Z,32.35
2019-01-13T01:26:48.561Z,32.64
2019-01-13T01:27:48.551Z,33.01
2019-01-13T01:28:48.523Z,33.39
2019-01-13T01:29:48.502Z,33.39
2019-01-13T01:30:48.486Z,33.3
2019-01-13T01:31:48.469Z,33.01
2019-01-13T01:32:48.448Z,33.11
2019-01-13T01:33:48.429Z,33.11
2019-01-13T01:34:48.417Z,32.82
2019-01-13T01:35:48.394Z,32.82
2019-01-13T01:36:48.398Z,32.92
2019-01-13T01:37:48.361Z,32.82
2019-01-13T01:38:48.343Z,32.73
2019-01-13T01:39:48.073Z,32.45
2019-01-13T01:40:48.304Z,32.82
2019-01-13T01:41:48.287Z,33.01
2019-01-13T01:42:48.268Z,33.3
2019-01-13T01:43:48.246Z,33.01
2019-01-13T01:44:47.987Z,33.01
2019-01-13T01:45:48.210Z,32.82
2019-01-13T01:46:48.196Z,32.82
2019-01-13T01:47:48.179Z,32.45
2019-01-13T01:48:48.161Z,32.54
2019-01-13T01:49:48.144Z,32.17
2019-01-13T01:50:48.126Z,32.07
2019-01-13T01:51:47.855Z,31.98
2019-01-13T01:52:48.084Z,31.98
2019-01-13T01:53:48.067Z,31.6
2019-01-13T01:54:48.048Z,31.41
2019-01-13T01:55:48.026Z,31.22
2019-01-13T01:56:48.010Z,31.31
2019-01-13T01:57:47.989Z,30.93
2019-01-13T01:58:47.974Z,31.03
2019-01-13T01:59:47.973Z,31.22
2019-01-13T02:00:47.936Z,31.12
2019-01-13T02:01:47.919Z,31.03
2019-01-13T02:02:47.655Z,31.03
2019-01-13T02:03:47.690Z,30.93
2019-01-13T02:04:47.617Z,31.22
2019-01-13T02:05:47.862Z,31.22
2019-01-13T02:06:47.828Z,31.31
2019-01-13T02:07:47.807Z,31.12
2019-01-13T02:08:47.791Z,30.84
2019-01-13T02:09:47.775Z,31.03
2019-01-13T02:10:47.754Z,31.5
2019-01-13T02:11:47.736Z,31.69
2019-01-13T02:12:47.720Z,31.6
2019-01-13T02:13:47.701Z,32.07
2019-01-13T02:14:47.683Z,32.17
2019-01-13T02:15:47.664Z,32.64
2019-01-13T02:16:47.646Z,32.82
2019-01-13T02:17:47.628Z,32.92
2019-01-13T02:18:47.610Z,32.82
2019-01-13T02:19:47.587Z,33.01
2019-01-13T02:20:47.573Z,33.01
2019-01-13T02:21:47.553Z,33.11
2019-01-13T02:22:47.537Z,33.39
2019-01-13T02:23:47.520Z,33.3
2019-01-13T02:24:47.506Z,33.87
2019-01-13T02:25:47.485Z,33.58
2019-01-13T02:26:47.464Z,34.06
2019-01-13T02:27:47.446Z,34.06
2019-01-13T02:28:47.427Z,33.77
2019-01-13T02:29:47.408Z,34.06
2019-01-13T02:30:51.905Z,34.06
2019-01-13T02:31:47.378Z,33.87
2019-01-13T02:32:47.352Z,34.06
2019-01-13T02:33:47.348Z,33.87
2019-01-13T02:34:47.316Z,33.87
2019-01-13T02:35:47.303Z,34.06
2019-01-13T02:36:47.281Z,33.87
2019-01-13T02:37:47.260Z,34.15
2019-01-13T02:38:47.245Z,34.25
2019-01-13T02:39:47.285Z,34.53
2019-01-13T02:40:47.205Z,34.63
2019-01-13T02:41:47.190Z,34.15
2019-01-13T02:42:46.951Z,34.44
2019-01-13T02:43:47.153Z,34.25
2019-01-13T02:44:47.135Z,34.06
2019-01-13T02:45:47.118Z,34.06
2019-01-13T02:46:47.101Z,33.87
2019-01-13T02:47:47.079Z,34.34
2019-01-13T02:48:47.061Z,34.15
2019-01-13T02:49:46.796Z,33.96
2019-01-13T02:50:47.114Z,34.63
2019-01-13T02:51:47.014Z,34.25
2019-01-13T02:52:46.741Z,34.34
2019-01-13T02:53:46.989Z,33.96
2019-01-13T02:54:46.952Z,34.34
2019-01-13T02:55:46.935Z,34.34
2019-01-13T02:56:46.916Z,34.25
2019-01-13T02:57:46.899Z,34.34
2019-01-13T02:58:46.879Z,34.25
2019-01-13T02:59:46.863Z,34.34
2019-01-13T03:00:46.840Z,34.06
2019-01-13T03:01:46.824Z,33.87
2019-01-13T03:02:46.806Z,34.25
2019-01-13T03:03:46.790Z,33.87
2019-01-13T03:04:46.775Z,33.87
2019-01-13T03:05:46.753Z,33.49
2019-01-13T03:06:46.736Z,34.06
2019-01-13T03:07:46.716Z,33.58
2019-01-13T03:08:46.699Z,33.68
2019-01-13T03:09:46.681Z,33.87
2019-01-13T03:10:46.411Z,33.87
2019-01-13T03:11:46.399Z,33.39
2019-01-13T03:12:46.627Z,33.3
2019-01-13T03:13:46.625Z,33.3
2019-01-13T03:14:46.342Z,33.39
2019-01-13T03:15:46.571Z,33.49
2019-01-13T03:16:46.558Z,33.49
2019-01-13T03:17:46.533Z,33.87
2019-01-13T03:18:46.516Z,34.06
2019-01-13T03:19:46.503Z,33.49
2019-01-13T03:20:46.481Z,33.96
2019-01-13T03:21:46.469Z,33.77
2019-01-13T03:22:46.498Z,33.96
2019-01-13T03:23:46.453Z,34.15
2019-01-13T03:24:46.410Z,34.44
2019-01-13T03:25:46.395Z,34.34
2019-01-13T03:26:46.372Z,34.34
2019-01-13T03:27:46.367Z,34.34
2019-01-13T03:28:46.333Z,34.15
2019-01-13T03:29:46.314Z,34.91
2019-01-13T03:30:46.309Z,35.19
2019-01-13T03:31:46.284Z,35.28
2019-01-13T03:32:46.274Z,35.38
2019-01-13T03:33:46.249Z,36.04
2019-01-13T03:34:46.231Z,36.42
2019-01-13T03:35:46.209Z,36.71
2019-01-13T03:36:46.190Z,37.37
2019-01-13T03:37:46.172Z,38.79
2019-01-13T03:38:46.157Z,39.07
2019-01-13T03:39:46.133Z,39.36
2019-01-13T03:40:46.119Z,39.45
2019-01-13T03:41:46.097Z,39.45
2019-01-13T03:42:46.083Z,39.45
2019-01-13T03:43:46.060Z,39.64
2019-01-13T03:44:46.042Z,39.36
2019-01-13T03:45:46.029Z,39.45
2019-01-13T03:46:46.026Z,38.98
2019-01-13T03:47:45.990Z,39.07
2019-01-13T03:48:45.976Z,38.88
2019-01-13T03:49:45.959Z,38.79
2019-01-13T03:50:45.939Z,38.6
2019-01-13T03:51:45.916Z,38.79
2019-01-13T03:52:52.658Z,38.88
2019-01-13T03:53:45.886Z,38.88
2019-01-13T03:54:45.865Z,39.07
2019-01-13T03:55:45.843Z,39.64
2019-01-13T03:56:45.828Z,40.01
2019-01-13T03:57:45.808Z,40.39
2019-01-13T03:58:45.794Z,40.68
2019-01-13T03:59:45.774Z,40.49
2019-01-13T04:00:45.758Z,40.96
2019-01-13T04:01:45.735Z,40.77
2019-01-13T04:02:45.719Z,41.25
2019-01-13T04:03:45.705Z,41.53
2019-01-13T04:04:45.683Z,42.29
2019-01-13T04:05:45.667Z,42.29
2019-01-13T04:06:45.644Z,42.57
2019-01-13T04:07:45.626Z,42.66
2019-01-13T04:08:45.612Z,42.66
2019-01-13T04:09:45.599Z,43.14
2019-01-13T04:10:45.573Z,43.33
2019-01-13T04:11:45.556Z,43.04
2019-01-13T04:12:45.535Z,43.04
2019-01-13T04:13:45.521Z,42.76
2019-01-13T04:14:45.502Z,42.66
2019-01-13T04:15:45.486Z,42.76
2019-01-13T04:16:45.464Z,43.42
2019-01-13T04:17:45.446Z,43.52
2019-01-13T04:18:45.429Z,43.52
2019-01-13T04:19:45.419Z,43.33
2019-01-13T04:20:45.391Z,44.27
2019-01-13T04:21:45.378Z,44.18
2019-01-13T04:22:45.356Z,44.27
2019-01-13T04:23:45.101Z,44.65
2019-01-13T04:24:45.324Z,45.69
2019-01-13T04:25:45.299Z,46.45
2019-01-13T04:26:45.290Z,47.11
2019-01-13T04:27:45.264Z,47.39
2019-01-13T04:28:45.251Z,47.3
2019-01-13T04:29:45.229Z,47.58
2019-01-13T04:30:45.211Z,47.58
2019-01-13T04:31:45.194Z,47.77
2019-01-13T04:32:45.180Z,48.44
2019-01-13T04:33:45.159Z,48.82
2019-01-13T04:34:45.140Z,48.82
2019-01-13T04:35:45.121Z,48.91
2019-01-13T04:36:45.107Z,49.38
2019-01-13T04:37:45.162Z,50.23
2019-01-13T04:38:45.075Z,51.09
2019-01-13T04:39:44.805Z,51.65
2019-01-13T04:40:45.038Z,51.56
2019-01-13T04:41:45.018Z,51.84
2019-01-13T04:42:45.000Z,51.93
2019-01-13T04:43:44.975Z,51.56
2019-01-13T04:44:44.715Z,51.28
2019-01-13T04:45:44.946Z,51.28
2019-01-13T04:46:44.928Z,51.18
2019-01-13T04:47:44.922Z,50.8
2019-01-13T04:48:44.894Z,50.61
2019-01-13T04:49:44.870Z,50.42
2019-01-13T04:50:44.850Z,50.23
2019-01-13T04:51:44.836Z,49.76
2019-01-13T04:52:44.831Z,49.95
2019-01-13T04:53:44.802Z,49.85
2019-01-13T04:54:44.776Z,49.95
2019-01-13T04:55:44.763Z,50.04
2019-01-13T04:56:44.746Z,50.33
2019-01-13T04:57:44.728Z,50.14
2019-01-13T04:58:44.705Z,50.14
2019-01-13T04:59:44.700Z,50.33
2019-01-13T05:00:44.673Z,50.33
2019-01-13T05:01:44.654Z,51.84
2019-01-13T05:02:44.637Z,52.03
2019-01-13T05:03:44.617Z,52.69
2019-01-13T05:04:44.598Z,53.26
2019-01-13T05:05:44.579Z,53.64
2019-01-13T05:06:44.561Z,53.83
2019-01-13T05:07:44.561Z,53.36
2019-01-13T05:08:44.526Z,53.55
2019-01-13T05:09:44.504Z,53.55
2019-01-13T05:10:44.495Z,53.64
2019-01-13T05:11:44.483Z,54.02
2019-01-13T05:12:44.205Z,54.49
2019-01-13T05:13:44.437Z,54.49
2019-01-13T05:14:44.417Z,53.83
2019-01-13T05:15:44.150Z,53.83
2019-01-13T05:16:44.378Z,53.55
2019-01-13T05:17:44.377Z,53.83
2019-01-13T05:18:44.347Z,53.83
2019-01-13T05:19:44.327Z,54.39
2019-01-13T05:20:44.313Z,54.02
2019-01-13T05:21:44.302Z,54.49
2019-01-13T05:22:44.290Z,54.68
2019-01-13T05:23:44.256Z,55.82
2019-01-13T05:24:43.988Z,56.1
2019-01-13T05:25:44.219Z,57.14
2019-01-13T05:26:44.198Z,57.23
2019-01-13T05:27:43.934Z,57.42
2019-01-13T05:28:43.916Z,57.8
2019-01-13T05:29:44.146Z,58.28
2019-01-13T05:30:44.132Z,58.47
2019-01-13T05:31:44.742Z,59.41
2019-01-13T05:32:44.091Z,59.41
2019-01-13T05:33:44.072Z,59.79
2019-01-13T05:34:44.061Z,60.36
2019-01-13T05:35:44.051Z,60.64
2019-01-13T05:36:44.018Z,60.74
2019-01-13T05:37:44.000Z,61.96
2019-01-13T05:38:44.007Z,61.96
2019-01-13T05:39:43.721Z,62.25
2019-01-13T05:40:43.947Z,62.06
2019-01-13T05:41:43.927Z,61.68
2019-01-13T05:42:43.992Z,62.25
2019-01-13T05:43:43.898Z,62.06
2019-01-13T05:44:43.876Z,63.2
2019-01-13T05:45:43.620Z,63.1
2019-01-13T05:46:43.852Z,63.01
2019-01-13T05:47:43.580Z,62.91
2019-01-13T05:48:43.807Z,62.82
2019-01-13T05:49:43.780Z,62.91
2019-01-13T05:50:43.768Z,62.06
2019-01-13T05:51:43.748Z,63.1
2019-01-13T05:52:43.729Z,63.29
2019-01-13T05:53:43.709Z,63.57
2019-01-13T05:54:43.697Z,64.33
2019-01-13T05:55:43.676Z,64.33
2019-01-13T05:56:43.657Z,64.42
2019-01-13T05:57:43.639Z,64.33
2019-01-13T05:58:43.619Z,65.28
2019-01-13T05:59:43.364Z,64.99
2019-01-13T06:00:43.588Z,65.28
2019-01-13T06:01:49.041Z,65.84
2019-01-13T06:02:43.552Z,65.56
2019-01-13T06:03:43.542Z,65.56
2019-01-13T06:04:43.512Z,65.28
2019-01-13T06:05:43.495Z,66.22
2019-01-13T06:06:43.481Z,67.07
2019-01-13T06:07:43.460Z,67.36
2019-01-13T06:08:43.440Z,67.36
2019-01-13T06:09:43.427Z,67.74
2019-01-13T06:10:43.410Z,67.45
2019-01-13T06:11:43.394Z,67.45
2019-01-13T06:12:43.370Z,68.12
2019-01-13T06:13:43.351Z,67.45
2019-01-13T06:14:43.335Z,68.02
2019-01-13T06:15:43.319Z,67.55
2019-01-13T06:16:43.299Z,67.07
2019-01-13T06:17:43.280Z,66.98
2019-01-13T06:18:43.259Z,67.26
2019-01-13T06:19:42.999Z,67.93
2019-01-13T06:20:43.227Z,67.26
2019-01-13T06:21:43.205Z,66.79
2019-01-13T06:22:43.189Z,66.22
2019-01-13T06:23:42.922Z,65.84
2019-01-13T06:24:43.150Z,65.09
2019-01-13T06:25:43.138Z,64.8
2019-01-13T06:26:43.116Z,64.14
2019-01-13T06:27:43.097Z,64.71
2019-01-13T06:28:43.079Z,64.42
2019-01-13T06:29:43.067Z,64.04
2019-01-13T06:30:43.042Z,63.95
2019-01-13T06:31:43.025Z,64.42
2019-01-13T06:32:43.011Z,64.99
2019-01-13T06:33:42.991Z,65.56
2019-01-13T06:34:42.979Z,65.09
2019-01-13T06:35:42.956Z,66.22
2019-01-13T06:36:42.932Z,66.5
2019-01-13T06:37:42.915Z,66.03
2019-01-13T06:38:42.905Z,66.5
2019-01-13T06:39:42.880Z,66.5
2019-01-13T06:40:42.615Z,66.6
2019-01-13T06:41:42.846Z,66.69
2019-01-13T06:42:42.827Z,66.6
2019-01-13T06:43:42.810Z,66.88
2019-01-13T06:44:42.792Z,66.88
2019-01-13T06:45:42.774Z,66.79
2019-01-13T06:46:42.757Z,67.64
2019-01-13T06:47:42.492Z,67.74
2019-01-13T06:48:42.724Z,67.55
2019-01-13T06:49:42.712Z,68.96
2019-01-13T06:50:42.436Z,69.15
2019-01-13T06:51:42.424Z,68.59
2019-01-13T06:52:42.403Z,68.87
2019-01-13T06:53:42.628Z,68.87
2019-01-13T06:54:42.612Z,69.72
2019-01-13T06:55:42.591Z,69.91
2019-01-13T06:56:42.330Z,69.44
2019-01-13T06:57:42.558Z,70.29
2019-01-13T06:58:42.543Z,71.33
2019-01-13T06:59:42.527Z,70.95
2019-01-13T07:00:42.506Z,70.67
2019-01-13T07:01:42.484Z,70.76
2019-01-13T07:02:42.468Z,70.95
2019-01-13T07:03:42.449Z,70.2
2019-01-13T07:04:42.184Z,69.44
2019-01-13T07:05:42.414Z,68.68
2019-01-13T07:06:42.394Z,69.25
2019-01-13T07:07:42.378Z,69.72
2019-01-13T07:08:42.111Z,69.44
2019-01-13T07:09:42.339Z,69.82
2019-01-13T07:10:42.323Z,68.49
2019-01-13T07:11:42.310Z,68.77
2019-01-13T07:12:42.038Z,68.59
2019-01-13T07:13:42.270Z,68.02
2019-01-13T07:14:42.249Z,67.68
2019-01-13T07:15:42.231Z,66.82
2019-01-13T07:16:42.215Z,66.82
2019-01-13T07:17:42.200Z,66.53
2019-01-13T07:18:42.178Z,65.75
2019-01-13T07:19:42.162Z,64.99
2019-01-13T07:20:42.144Z,63.85
2019-01-13T07:21:42.129Z,63.85
2019-01-13T07:22:43.062Z,63.48
2019-01-13T07:23:42.095Z,63.85
2019-01-13T07:24:42.076Z,64.42
2019-01-13T07:25:42.057Z,64.23
2019-01-13T07:26:42.036Z,63.95
2019-01-13T07:27:42.021Z,63.51
2019-01-13T07:28:42.000Z,63.13
2019-01-13T07:29:41.736Z,63.23
2019-01-13T07:30:41.963Z,63.04
2019-01-13T07:31:41.698Z,62.56
2019-01-13T07:32:41.928Z,63.6
2019-01-13T07:33:41.910Z,64.26
2019-01-13T07:34:41.891Z,66.44
2019-01-13T07:35:41.630Z,66.16
2019-01-13T07:36:41.862Z,65.69
2019-01-13T07:37:41.839Z,65.31
2019-01-13T07:38:41.821Z,65.02
2019-01-13T07:39:41.809Z,64.55
2019-01-13T07:40:41.788Z,64.26
2019-01-13T07:41:41.771Z,64.55
2019-01-13T07:42:41.751Z,65.02
2019-01-13T07:43:41.732Z,64.45
2019-01-13T07:44:41.717Z,63.7
2019-01-13T07:45:41.746Z,63.23
2019-01-13T07:46:41.679Z,62.28
2019-01-13T07:47:41.661Z,61.8
2019-01-13T07:48:41.643Z,61.05
2019-01-13T07:49:41.629Z,60.19
2019-01-13T07:50:41.610Z,58.78
2019-01-13T07:51:41.597Z,58.3
2019-01-13T07:52:41.570Z,58.49
2019-01-13T07:53:41.307Z,58.68
2019-01-13T07:54:41.538Z,59.06
2019-01-13T07:55:41.520Z,59.16
2019-01-13T07:56:41.255Z,59.06
2019-01-13T07:57:41.487Z,58.4
2019-01-13T07:58:41.466Z,58.3
2019-01-13T07:59:41.449Z,57.83
2019-01-13T08:00:41.430Z,57.45
2019-01-13T08:01:41.413Z,56.79
2019-01-13T08:02:41.399Z,57.07
2019-01-13T08:03:41.383Z,57.17
2019-01-13T08:04:41.362Z,56.6
2019-01-13T08:05:41.095Z,56.22
2019-01-13T08:06:41.323Z,55.56
2019-01-13T08:07:41.316Z,56.13
2019-01-13T08:08:41.292Z,56.6
2019-01-13T08:09:41.273Z,56.7
2019-01-13T08:10:41.255Z,56.98
2019-01-13T08:11:41.240Z,57.07
2019-01-13T08:12:41.220Z,57.92
2019-01-13T08:13:41.201Z,59.44
2019-01-13T08:14:41.183Z,60.29
2019-01-13T08:15:41.165Z,62.09
2019-01-13T08:16:41.149Z,61.9
2019-01-13T08:17:41.127Z,62.85
2019-01-13T08:18:41.111Z,62.66
2019-01-13T08:19:40.847Z,63.04
2019-01-13T08:20:41.080Z,62.94
2019-01-13T08:21:41.063Z,63.32
2019-01-13T08:22:41.040Z,63.13
2019-01-13T08:23:41.030Z,65.4
2019-01-13T08:24:41.013Z,65.4
2019-01-13T08:25:40.991Z,65.21
2019-01-13T08:26:40.973Z,65.59
2019-01-13T08:27:40.955Z,65.88
2019-01-13T08:28:40.937Z,65.88
2019-01-13T08:29:40.680Z,66.06
2019-01-13T08:30:40.900Z,67.49
2019-01-13T08:31:40.888Z,67.49
2019-01-13T08:32:40.866Z,67.68
2019-01-13T08:33:40.853Z,68.24
2019-01-13T08:34:41.617Z,68.24
2019-01-13T08:35:40.817Z,67.2
2019-01-13T08:36:40.797Z,66.63
2019-01-13T08:37:40.780Z,67.3
2019-01-13T08:38:40.515Z,69.85
2019-01-13T08:39:40.748Z,72.22
2019-01-13T08:40:40.728Z,72.41
2019-01-13T08:41:40.710Z,72.03
2019-01-13T08:42:40.692Z,71.17
2019-01-13T08:43:40.675Z,71.17
2019-01-13T08:44:40.664Z,72.6
2019-01-13T08:45:42.041Z,72.5
2019-01-13T08:46:40.627Z,72.03
2019-01-13T08:47:40.608Z,71.17
2019-01-13T08:48:40.591Z,70.79
2019-01-13T08:49:40.327Z,69.66
2019-01-13T08:50:40.308Z,69.57
2019-01-13T08:51:40.539Z,69.47
2019-01-13T08:52:40.273Z,69.19
2019-01-13T08:53:40.505Z,68.81
2019-01-13T08:54:40.483Z,69
2019-01-13T08:55:40.470Z,68.52
2019-01-13T08:56:40.453Z,68.33
2019-01-13T08:57:40.191Z,68.81
2019-01-13T08:58:40.415Z,68.43
2019-01-13T08:59:40.398Z,67.68
2019-01-13T09:00:40.381Z,67.01
2019-01-13T09:01:40.122Z,66.25
2019-01-13T09:02:40.347Z,67.11
2019-01-13T09:03:40.330Z,66.92
2019-01-13T09:04:40.312Z,67.11
2019-01-13T09:05:40.296Z,66.44
2019-01-13T09:06:40.278Z,65.69
2019-01-13T09:07:40.258Z,65.97
2019-01-13T09:08:40.393Z,65.4
2019-01-13T09:09:40.231Z,64.64
2019-01-13T09:10:40.209Z,63.6
2019-01-13T09:11:40.191Z,63.23
2019-01-13T09:12:40.174Z,62.66
2019-01-13T09:13:40.155Z,61.52
2019-01-13T09:14:40.140Z,61.43
2019-01-13T09:15:40.123Z,60.58
2019-01-13T09:16:40.103Z,60.58
2019-01-13T09:17:39.838Z,61.05
2019-01-13T09:18:40.068Z,62.18
2019-01-13T09:19:40.053Z,62.66
2019-01-13T09:20:40.077Z,61.9
2019-01-13T09:21:39.772Z,63.32
2019-01-13T09:22:39.998Z,63.54
2019-01-13T09:23:39.980Z,63.79
2019-01-13T09:24:39.967Z,64.36
2019-01-13T09:25:39.965Z,64.01
2019-01-13T09:26:41.343Z,65.12
2019-01-13T09:27:39.912Z,66.16
2019-01-13T09:28:39.649Z,66.38
2019-01-13T09:29:44.871Z,66.44
2019-01-13T09:30:39.862Z,65.53
2019-01-13T09:31:39.846Z,65.34
2019-01-13T09:32:42.074Z,65.34
2019-01-13T09:33:39.810Z,65.53
2019-01-13T09:34:39.795Z,65.06
2019-01-13T09:35:39.779Z,64.3
2019-01-13T09:36:39.793Z,67.33
2019-01-13T09:37:39.781Z,67.14
2019-01-13T09:38:39.761Z,67.33
2019-01-13T09:39:39.808Z,68.27
2019-01-13T09:40:39.790Z,68.75
2019-01-13T09:41:39.763Z,67.99
2019-01-13T09:42:39.796Z,67.9
2019-01-13T09:43:39.532Z,67.14
2019-01-13T09:44:39.759Z,66.67
2019-01-13T09:45:39.743Z,66.67
2019-01-13T09:46:39.726Z,67.24
2019-01-13T09:47:39.715Z,67.71
2019-01-13T09:48:39.745Z,68.37
2019-01-13T09:49:39.674Z,70.74
2019-01-13T09:50:39.663Z,73.39
2019-01-13T09:51:39.643Z,74.81
2019-01-13T09:52:39.624Z,74.71
2019-01-13T09:53:39.606Z,75.38
2019-01-13T09:54:39.600Z,75.28
2019-01-13T09:55:39.571Z,73.68
2019-01-13T09:56:39.558Z,72.34
2019-01-13T09:57:39.545Z,72.34
2019-01-13T09:58:40.259Z,71.12
2019-01-13T09:59:39.507Z,71.69
2019-01-13T10:00:39.493Z,73.96
2019-01-13T10:01:39.474Z,73.58
2019-01-13T10:02:46.423Z,73.58
2019-01-13T10:03:40.155Z,75.28
2019-01-13T10:04:39.421Z,78.41
2019-01-13T10:05:39.403Z,78.5
2019-01-13T10:06:39.390Z,77.27
2019-01-13T10:07:39.372Z,77.37
2019-01-13T10:08:39.158Z,77.46
2019-01-13T10:09:39.338Z,77.27
2019-01-13T10:10:39.320Z,76.23
2019-01-13T10:11:39.056Z,75.47
2019-01-13T10:12:39.290Z,75.28
2019-01-13T10:13:39.274Z,76.42
2019-01-13T10:14:39.005Z,76.51
2019-01-13T10:15:39.236Z,76.8
2019-01-13T10:16:39.220Z,75.19
2019-01-13T10:17:38.956Z,78.5
2019-01-13T10:18:39.186Z,78.59
2019-01-13T10:19:39.168Z,79.64
2019-01-13T10:20:38.909Z,80.3
2019-01-13T10:21:39.139Z,79.45
2019-01-13T10:22:38.874Z,79.45
2019-01-13T10:23:38.852Z,79.26
2019-01-13T10:24:38.839Z,78.79
2019-01-13T10:25:38.821Z,78.31
2019-01-13T10:26:39.055Z,77.56
2019-01-13T10:27:39.040Z,77.27
2019-01-13T10:28:39.017Z,76.61
2019-01-13T10:29:39.007Z,76.61
2019-01-13T10:30:38.987Z,76.7
2019-01-13T10:31:38.977Z,76.42
2019-01-13T10:32:38.952Z,76.61
2019-01-13T10:33:38.940Z,81.15
2019-01-13T10:34:38.924Z,81.34
2019-01-13T10:35:38.901Z,81.44
2019-01-13T10:36:38.652Z,80.3
2019-01-13T10:37:38.870Z,80.02
2019-01-13T10:38:38.857Z,79.36
2019-01-13T10:39:38.597Z,78.5
2019-01-13T10:40:38.827Z,76.7
2019-01-13T10:41:38.805Z,75.57
2019-01-13T10:42:38.793Z,75.47
2019-01-13T10:43:38.772Z,76.14
2019-01-13T10:44:38.756Z,75.09
2019-01-13T10:45:38.739Z,74.52
2019-01-13T10:46:38.718Z,74.75
2019-01-13T10:47:38.708Z,74.09
2019-01-13T10:48:38.687Z,74.37
2019-01-13T10:49:38.676Z,75.51
2019-01-13T10:50:38.657Z,76.46
2019-01-13T10:51:38.640Z,83.09
2019-01-13T10:52:38.625Z,84.7
2019-01-13T10:53:38.603Z,84.42
2019-01-13T10:54:38.651Z,84.61
2019-01-13T10:55:38.576Z,84.23
2019-01-13T10:56:38.564Z,83.47
2019-01-13T10:57:38.551Z,84.89
2019-01-13T10:58:38.524Z,90.67
2019-01-13T10:59:38.509Z,96.36
2019-01-13T11:00:38.502Z,98.25
2019-01-13T11:01:38.478Z,99.99
2019-01-13T11:02:38.460Z,99.99
2019-01-13T11:03:38.445Z,99.58
2019-01-13T11:04:38.428Z,99.01
2019-01-13T11:05:38.411Z,99.29
2019-01-13T11:06:38.398Z,99.99
2019-01-13T11:07:38.380Z,99.99
2019-01-13T11:08:38.363Z,99.99
2019-01-13T11:09:38.099Z,99.99
2019-01-13T11:10:38.334Z,99.99
2019-01-13T11:11:38.320Z,99.29
2019-01-13T11:12:38.297Z,99.99
2019-01-13T11:13:38.863Z,99.67
2019-01-13T11:14:38.264Z,99.58
2019-01-13T11:15:38.253Z,99.99
2019-01-13T11:16:38.233Z,99.86
2019-01-13T11:17:38.218Z,99.99
2019-01-13T11:18:38.209Z,99.99
2019-01-13T11:19:38.195Z,99.39
2019-01-13T11:20:38.172Z,98.06
2019-01-13T11:21:38.152Z,97.3
2019-01-13T11:22:38.139Z,96.26
2019-01-13T11:23:38.123Z,97.02
2019-01-13T11:24:38.109Z,98.82
2019-01-13T11:25:37.841Z,98.54
2019-01-13T11:26:38.072Z,96.55
2019-01-13T11:27:38.057Z,95.5
2019-01-13T11:28:37.794Z,96.36
2019-01-13T11:29:37.826Z,95.31
2019-01-13T11:30:38.009Z,94.93
2019-01-13T11:31:37.994Z,95.6
2019-01-13T11:32:37.980Z,95.79
2019-01-13T11:33:37.714Z,94.56
2019-01-13T11:34:37.941Z,93.61
2019-01-13T11:35:37.928Z,92.38
2019-01-13T11:36:37.911Z,91.9
2019-01-13T11:37:37.899Z,90.77
2019-01-13T11:38:37.880Z,92.85
2019-01-13T11:39:37.858Z,93.7
2019-01-13T11:40:37.845Z,94.42
2019-01-13T11:41:37.828Z,93.51
2019-01-13T11:42:37.812Z,92.43
2019-01-13T11:43:37.798Z,91.19
2019-01-13T11:44:38.030Z,90.63
2019-01-13T11:45:37.767Z,89.58
2019-01-13T11:46:37.748Z,88.92
2019-01-13T11:47:37.734Z,88.35
2019-01-13T11:48:37.781Z,87.78
2019-01-13T11:49:37.745Z,87.21
2019-01-13T11:50:37.680Z,87.21
2019-01-13T11:51:37.668Z,86.74
2019-01-13T11:52:37.648Z,86.46
2019-01-13T11:53:37.640Z,88.54
2019-01-13T11:54:37.617Z,88.35
2019-01-13T11:55:37.602Z,88.82
2019-01-13T11:56:37.582Z,87.78
2019-01-13T11:57:37.563Z,86.55
2019-01-13T11:58:37.566Z,85.04
2019-01-13T11:59:37.537Z,85.04
2019-01-13T12:00:37.553Z,84.85
2019-01-13T12:01:37.502Z,85.23
2019-01-13T12:02:37.516Z,84.85
2019-01-13T12:03:37.219Z,84.47
2019-01-13T12:04:37.523Z,84.56
2019-01-13T12:05:37.437Z,84.47
2019-01-13T12:06:37.425Z,85.32
2019-01-13T12:07:37.403Z,87.21
2019-01-13T12:08:37.385Z,88.17
2019-01-13T12:09:37.417Z,87.98
2019-01-13T12:10:37.361Z,88.73
2019-01-13T12:11:37.338Z,87.98
2019-01-13T12:12:37.070Z,87.31
2019-01-13T12:13:37.308Z,87.21
2019-01-13T12:14:37.284Z,86.55
2019-01-13T12:15:37.267Z,87.21
2019-01-13T12:16:37.760Z,85.99
2019-01-13T12:17:37.236Z,84.85
2019-01-13T12:18:43.019Z,83.52
2019-01-13T12:19:37.234Z,83.62
2019-01-13T12:20:36.938Z,83.62
2019-01-13T12:21:37.223Z,82.48
2019-01-13T12:22:37.174Z,81.34
2019-01-13T12:23:36.887Z,80.21
2019-01-13T12:24:37.174Z,79.83
2019-01-13T12:25:37.145Z,78.79
2019-01-13T12:26:36.837Z,77.08
2019-01-13T12:27:37.098Z,76.7
2019-01-13T12:28:37.055Z,76.32
2019-01-13T12:29:36.788Z,76.14
2019-01-13T12:30:37.016Z,75.57
2019-01-13T12:31:37.011Z,75.19
2019-01-13T12:32:36.983Z,75.09
2019-01-13T12:33:36.968Z,77.27
2019-01-13T12:34:36.986Z,76.99
2019-01-13T12:35:36.936Z,77.27
2019-01-13T12:36:36.914Z,76.61
2019-01-13T12:37:36.901Z,76.99
2019-01-13T12:38:36.882Z,78.69
2019-01-13T12:39:36.869Z,80.21
2019-01-13T12:40:36.888Z,80.58
2019-01-13T12:41:36.835Z,81.63
2019-01-13T12:42:36.818Z,79.83
2019-01-13T12:43:36.800Z,78.59
2019-01-13T12:44:36.785Z,77.94
2019-01-13T12:45:36.768Z,77.27
2019-01-13T12:46:36.747Z,77.46
2019-01-13T12:47:36.747Z,76.7
2019-01-13T12:48:36.787Z,74.81
2019-01-13T12:49:36.721Z,73.3
2019-01-13T12:50:36.703Z,73.01
2019-01-13T12:51:36.666Z,72.63
2019-01-13T12:52:36.650Z,71.88
2019-01-13T12:53:36.385Z,71.5
2019-01-13T12:54:36.651Z,72.06
2019-01-13T12:55:36.598Z,71.69